createdAt,value
2022-10-26T00:00:34.092Z,100342.19
2022-10-26T00:03:01.978Z,100334.44
2022-10-26T00:05:29.639Z,100328.53
2022-10-26T00:07:57.533Z,100331.81
2022-10-26T00:10:27.213Z,100340.66
2022-10-26T00:12:58.620Z,100335.59
2022-10-26T00:15:26.399Z,100330.53
2022-10-26T00:17:54.137Z,100334.13
2022-10-26T00:20:21.904Z,100341.94
2022-10-26T00:22:49.787Z,100344.56
2022-10-26T00:25:17.729Z,100325.75
2022-10-26T00:27:45.499Z,100308.59
2022-10-26T00:30:14.802Z,100312.34
2022-10-26T00:32:42.772Z,100319.38
2022-10-26T00:35:21.443Z,100326.28
2022-10-26T00:37:55.790Z,100333.22
2022-10-26T00:40:28.353Z,100339.97
2022-10-26T00:42:56.033Z,100339.28
2022-10-26T00:45:28.196Z,100346.94
2022-10-26T00:47:59.544Z,100343.31
2022-10-26T00:50:33.412Z,100342.63
2022-10-26T00:53:03.511Z,100332.97
2022-10-26T00:55:34.000Z,100330.66
2022-10-26T00:58:04.328Z,100329.00
2022-10-26T01:00:33.741Z,100315.81
2022-10-26T01:03:05.945Z,100323.63
2022-10-26T01:05:36.270Z,100333.28
2022-10-26T01:08:04.367Z,100335.97
2022-10-26T01:10:33.128Z,100330.66
2022-10-26T01:13:01.786Z,100330.59
2022-10-26T01:15:37.929Z,100323.53
2022-10-26T01:18:12.678Z,100348.16
2022-10-26T01:21:00.772Z,100335.13
2022-10-26T01:23:35.997Z,100327.22
2022-10-26T01:26:29.423Z,100314.88
2022-10-26T01:29:43.202Z,100308.44
2022-10-26T01:32:16.231Z,100308.19
2022-10-26T01:34:49.714Z,100300.16
2022-10-26T01:37:22.711Z,100297.38
2022-10-26T01:39:55.598Z,100291.09
2022-10-26T01:42:25.179Z,100284.41
2022-10-26T01:44:57.398Z,100287.81
2022-10-26T01:47:28.593Z,100288.94
2022-10-26T01:49:59.908Z,100272.38
2022-10-26T01:52:28.610Z,100267.00
2022-10-26T01:55:01.984Z,100268.94
2022-10-26T01:57:34.839Z,100282.13
2022-10-26T02:00:07.731Z,100288.09
2022-10-26T02:03:00.251Z,100292.34
2022-10-26T02:05:49.334Z,100295.84
2022-10-26T02:08:49.379Z,100292.16
2022-10-26T02:11:26.910Z,100286.03
2022-10-26T02:14:01.932Z,100276.75
2022-10-26T02:16:38.935Z,100278.50
2022-10-26T02:19:13.691Z,100268.69
2022-10-26T02:21:49.423Z,100266.09
2022-10-26T02:24:18.745Z,100268.69
2022-10-26T02:26:49.218Z,100276.53
2022-10-26T02:29:19.214Z,100262.72
2022-10-26T02:31:49.633Z,100259.34
2022-10-26T02:34:25.037Z,100257.56
2022-10-26T02:36:56.747Z,100256.03
2022-10-26T02:39:26.295Z,100255.19
2022-10-26T02:41:55.960Z,100260.34
2022-10-26T02:44:27.907Z,100251.97
2022-10-26T02:46:56.667Z,100251.97
2022-10-26T02:49:26.039Z,100263.41
2022-10-26T02:52:02.353Z,100261.50
2022-10-26T02:54:43.081Z,100264.88
2022-10-26T02:57:16.073Z,100272.59
2022-10-26T02:59:47.510Z,100260.34
2022-10-26T03:02:17.741Z,100274.38
2022-10-26T03:04:46.833Z,100277.53
2022-10-26T03:07:14.643Z,100289.78
2022-10-26T03:09:42.724Z,100292.34
2022-10-26T03:12:10.802Z,100297.44
2022-10-26T03:14:38.468Z,100286.09
2022-10-26T03:17:06.192Z,100291.16
2022-10-26T03:19:34.156Z,100298.00
2022-10-26T03:22:03.271Z,100310.34
2022-10-26T03:24:31.134Z,100314.94
2022-10-26T03:27:01.247Z,100313.09
2022-10-26T03:29:30.114Z,100332.44
2022-10-26T03:31:57.766Z,100327.16
2022-10-26T03:34:25.539Z,100326.84
2022-10-26T03:36:53.209Z,100319.16
2022-10-26T03:39:22.267Z,100319.31
2022-10-26T03:41:50.014Z,100316.72
2022-10-26T03:44:17.935Z,100324.59
2022-10-26T03:46:46.047Z,100311.50
2022-10-26T03:49:13.959Z,100289.94
2022-10-26T03:51:41.658Z,100289.16
2022-10-26T03:54:09.680Z,100276.38
2022-10-26T03:56:38.866Z,100280.66
2022-10-26T03:59:06.586Z,100275.66
2022-10-26T04:01:34.440Z,100260.88
2022-10-26T04:04:02.455Z,100262.56
2022-10-26T04:06:30.145Z,100250.59
2022-10-26T04:09:02.270Z,100244.53
2022-10-26T04:11:30.471Z,100248.22
2022-10-26T04:14:00.722Z,100245.78
2022-10-26T04:16:31.167Z,100247.69
2022-10-26T04:19:01.842Z,100252.97
2022-10-26T04:21:32.654Z,100251.22
2022-10-26T04:24:00.394Z,100249.84
2022-10-26T04:26:28.061Z,100253.06
2022-10-26T04:28:55.735Z,100252.91
2022-10-26T04:31:24.722Z,100254.72
2022-10-26T04:33:53.778Z,100264.25
2022-10-26T04:36:21.487Z,100270.09
2022-10-26T04:38:50.213Z,100278.66
2022-10-26T04:41:17.912Z,100272.16
2022-10-26T04:43:45.770Z,100278.38
2022-10-26T04:46:16.740Z,100282.66
2022-10-26T04:48:46.455Z,100284.66
2022-10-26T04:51:14.074Z,100279.44
2022-10-26T04:53:41.866Z,100287.16
2022-10-26T04:56:10.227Z,100281.94
2022-10-26T04:58:37.999Z,100281.34
2022-10-26T05:01:06.086Z,100276.91
2022-10-26T05:03:34.320Z,100276.66
2022-10-26T05:06:03.331Z,100267.03
2022-10-26T05:08:31.063Z,100266.31
2022-10-26T05:10:58.730Z,100268.31
2022-10-26T05:15:55.296Z,100264.78
2022-10-26T05:18:23.038Z,100260.72
2022-10-26T05:20:53.940Z,100262.72
2022-10-26T05:23:23.506Z,100267.75
2022-10-26T05:25:51.500Z,100258.88
2022-10-26T05:28:19.848Z,100266.63
2022-10-26T05:30:48.150Z,100260.34
2022-10-26T05:33:16.045Z,100270.84
2022-10-26T05:35:44.077Z,100283.34
2022-10-26T05:38:14.028Z,100283.13
2022-10-26T05:40:49.862Z,100281.03
2022-10-26T05:43:18.319Z,100282.72
2022-10-26T05:45:46.296Z,100285.19
2022-10-26T05:48:14.328Z,100286.81
2022-10-26T05:50:42.240Z,100287.56
2022-10-26T05:53:10.129Z,100291.72
2022-10-26T05:55:38.588Z,100301.38
2022-10-26T05:58:11.656Z,100301.97
2022-10-26T06:00:51.604Z,100304.59
2022-10-26T06:06:00.698Z,100313.19
2022-10-26T06:08:30.853Z,100314.03
2022-10-26T06:11:01.521Z,100315.88
2022-10-26T06:13:31.217Z,100328.69
2022-10-26T06:16:15.679Z,100328.06
2022-10-26T06:18:57.073Z,100334.97
2022-10-26T06:21:42.378Z,100326.97
2022-10-26T06:24:17.638Z,100337.34
2022-10-26T06:26:56.538Z,100329.59
2022-10-26T06:29:38.327Z,100338.72
2022-10-26T06:32:06.168Z,100340.34
2022-10-26T06:34:36.796Z,100339.41
2022-10-26T06:37:06.083Z,100343.72
2022-10-26T06:39:39.938Z,100341.75
2022-10-26T06:42:10.355Z,100344.25
2022-10-26T06:44:40.312Z,100344.94
2022-10-26T06:47:12.215Z,100341.19
2022-10-26T06:49:43.797Z,100348.09
2022-10-26T06:52:17.432Z,100355.16
2022-10-26T06:54:49.479Z,100366.38
2022-10-26T06:57:18.928Z,100366.19
2022-10-26T06:59:51.590Z,100374.50
2022-10-26T07:02:20.345Z,100374.44
2022-10-26T07:04:48.559Z,100376.94
2022-10-26T07:07:19.053Z,100373.34
2022-10-26T07:09:47.017Z,100379.25
2022-10-26T07:12:15.291Z,100387.84
2022-10-26T07:14:43.178Z,100386.91
2022-10-26T07:17:13.238Z,100385.00
2022-10-26T07:19:42.824Z,100383.56
2022-10-26T07:22:11.197Z,100386.31
2022-10-26T07:24:39.095Z,100380.94
2022-10-26T07:27:06.930Z,100390.44
2022-10-26T07:29:35.544Z,100393.91
2022-10-26T07:32:04.253Z,100391.97
2022-10-26T07:34:33.442Z,100404.13
2022-10-26T07:37:02.425Z,100396.13
2022-10-26T07:39:32.651Z,100400.38
2022-10-26T07:42:00.439Z,100413.19
2022-10-26T07:44:28.102Z,100417.28
2022-10-26T07:46:55.819Z,100405.94
2022-10-26T07:49:26.212Z,100417.91
2022-10-26T07:51:57.230Z,100412.47
2022-10-26T07:54:25.194Z,100414.88
2022-10-26T07:56:52.883Z,100415.63
2022-10-26T07:59:20.786Z,100424.31
2022-10-26T08:01:49.004Z,100416.22
2022-10-26T08:04:16.878Z,100423.09
2022-10-26T08:06:44.762Z,100437.69
2022-10-26T08:09:14.079Z,100430.19
2022-10-26T08:11:41.993Z,100437.63
2022-10-26T08:14:12.171Z,100440.78
2022-10-26T08:16:40.859Z,100443.91
2022-10-26T08:19:09.652Z,100437.66
2022-10-26T08:21:40.069Z,100435.09
2022-10-26T08:24:08.879Z,100432.56
2022-10-26T08:26:38.013Z,100433.81
2022-10-26T08:29:05.899Z,100441.66
2022-10-26T08:31:33.749Z,100450.38
2022-10-26T08:34:01.775Z,100450.25
2022-10-26T08:36:30.534Z,100446.53
2022-10-26T08:41:36.191Z,100449.25
2022-10-26T08:44:13.984Z,100454.91
2022-10-26T08:46:47.543Z,100456.50
2022-10-26T08:49:21.728Z,100466.63
2022-10-26T08:51:53.011Z,100472.59
2022-10-26T08:54:27.239Z,100473.13
2022-10-26T08:56:59.348Z,100479.88
2022-10-26T08:59:35.600Z,100482.03
2022-10-26T09:02:03.857Z,100483.19
2022-10-26T09:04:34.194Z,100496.84
2022-10-26T09:07:11.359Z,100495.09
2022-10-26T09:09:47.761Z,100501.50
2022-10-26T09:12:25.279Z,100512.28
2022-10-26T09:15:06.266Z,100512.13
2022-10-26T09:17:44.151Z,100509.22
2022-10-26T09:20:40.373Z,100508.38
2022-10-26T09:23:19.512Z,100504.28
2022-10-26T09:25:52.232Z,100505.56
2022-10-26T09:28:20.611Z,100507.25
2022-10-26T09:30:49.969Z,100508.19
2022-10-26T09:33:20.301Z,100513.22
2022-10-26T09:35:52.584Z,100507.88
2022-10-26T09:38:26.231Z,100514.34
2022-10-26T09:40:59.323Z,100508.84
2022-10-26T09:43:33.134Z,100508.91
2022-10-26T09:46:02.436Z,100495.69
2022-10-26T09:48:37.421Z,100495.75
2022-10-26T09:51:05.298Z,100508.50
2022-10-26T09:53:33.246Z,100509.25
2022-10-26T09:56:07.052Z,100513.47
2022-10-26T09:58:39.528Z,100514.06
2022-10-26T10:01:09.182Z,100527.66
2022-10-26T10:03:36.966Z,100532.81
2022-10-26T10:06:17.663Z,100537.88
2022-10-26T10:09:05.091Z,100534.63
2022-10-26T10:11:39.792Z,100535.59
2022-10-26T10:14:09.997Z,100535.09
2022-10-26T10:16:39.777Z,100540.50
2022-10-26T10:19:07.610Z,100555.34
2022-10-26T10:21:37.861Z,100556.63
2022-10-26T10:24:24.382Z,100565.59
2022-10-26T10:27:03.764Z,100571.19
2022-10-26T10:29:33.018Z,100569.94
2022-10-26T10:32:03.934Z,100575.59
2022-10-26T10:34:32.988Z,100571.91
2022-10-26T10:37:02.438Z,100580.53
2022-10-26T10:39:41.725Z,100580.84
2022-10-26T10:42:19.679Z,100584.97
2022-10-26T10:44:52.138Z,100583.34
2022-10-26T10:47:25.032Z,100588.00
2022-10-26T10:49:54.658Z,100590.53
2022-10-26T10:52:29.450Z,100587.28
2022-10-26T10:55:10.087Z,100591.78
2022-10-26T10:57:46.278Z,100591.56
2022-10-26T11:00:14.524Z,100596.97
2022-10-26T11:03:03.528Z,100599.91
2022-10-26T11:05:49.653Z,100603.56
2022-10-26T11:08:24.652Z,100607.81
2022-10-26T11:10:59.228Z,100608.97
2022-10-26T11:13:32.259Z,100609.38
2022-10-26T11:16:04.232Z,100612.22
2022-10-26T11:18:37.752Z,100610.72
2022-10-26T11:21:15.138Z,100611.88
2022-10-26T11:23:49.694Z,100608.63
2022-10-26T11:26:25.555Z,100613.47
2022-10-26T11:28:59.827Z,100604.59
2022-10-26T11:31:32.666Z,100620.34
2022-10-26T11:34:13.537Z,100616.34
2022-10-26T11:36:45.161Z,100618.75
2022-10-26T11:39:21.376Z,100622.78
2022-10-26T11:41:52.160Z,100616.78
2022-10-26T11:44:25.668Z,100617.19
2022-10-26T11:46:57.770Z,100618.88
2022-10-26T11:49:32.269Z,100619.28
2022-10-26T11:52:06.053Z,100614.47
2022-10-26T11:54:36.976Z,100616.56
2022-10-26T11:57:06.151Z,100620.53
2022-10-26T11:59:38.578Z,100620.34
2022-10-26T12:02:15.511Z,100622.75
2022-10-26T12:04:48.369Z,100622.53
2022-10-26T12:07:21.431Z,100619.69
2022-10-26T12:09:49.263Z,100621.38
2022-10-26T12:12:24.923Z,100617.84
2022-10-26T12:15:04.418Z,100624.25
2022-10-26T12:17:40.043Z,100623.81
2022-10-26T12:20:26.485Z,100625.03
2022-10-26T12:22:54.648Z,100626.63
2022-10-26T12:25:23.347Z,100621.13
2022-10-26T12:27:54.237Z,100629.22
2022-10-26T12:30:30.623Z,100622.19
2022-10-26T12:33:01.064Z,100633.06
2022-10-26T12:35:47.742Z,100627.97
2022-10-26T12:38:49.640Z,100634.59
2022-10-26T12:41:25.694Z,100637.13
2022-10-26T12:43:58.789Z,100642.28
2022-10-26T12:46:41.920Z,100640.53
2022-10-26T12:49:45.773Z,100635.31
2022-10-26T12:52:24.092Z,100635.41
2022-10-26T12:55:19.113Z,100636.00
2022-10-26T12:57:58.003Z,100631.69
2022-10-26T13:00:28.850Z,100637.22
2022-10-26T13:03:14.664Z,100637.69
2022-10-26T13:06:14.859Z,100634.91
2022-10-26T13:08:47.265Z,100635.31
2022-10-26T13:11:19.541Z,100637.50
2022-10-26T13:13:55.549Z,100643.69
2022-10-26T13:16:27.554Z,100641.34
2022-10-26T13:18:55.850Z,100636.06
2022-10-26T13:21:25.571Z,100639.53
2022-10-26T13:24:02.277Z,100646.94
2022-10-26T13:26:33.086Z,100642.75
2022-10-26T13:29:01.936Z,100637.47
2022-10-26T13:31:58.471Z,100648.78
2022-10-26T13:34:30.127Z,100654.00
2022-10-26T13:37:06.337Z,100654.28
2022-10-26T13:39:39.293Z,100654.16
2022-10-26T13:42:09.142Z,100655.59
2022-10-26T13:44:43.349Z,100652.47
2022-10-26T13:47:15.566Z,100662.50
2022-10-26T13:49:47.018Z,100659.25
2022-10-26T13:52:17.803Z,100663.09
2022-10-26T13:54:49.901Z,100666.75
2022-10-26T13:57:22.299Z,100665.03
2022-10-26T13:59:49.925Z,100656.63
2022-10-26T14:02:24.762Z,100665.66
2022-10-26T14:05:01.324Z,100664.41
2022-10-26T14:07:37.498Z,100659.41
2022-10-26T14:10:07.253Z,100667.84
2022-10-26T14:12:35.648Z,100665.19
2022-10-26T14:15:08.504Z,100674.78
2022-10-26T14:17:36.699Z,100681.56
2022-10-26T14:20:05.640Z,100674.06
2022-10-26T14:22:33.587Z,100680.41
2022-10-26T14:25:02.595Z,100679.91
2022-10-26T14:27:39.196Z,100671.34
2022-10-26T14:30:23.571Z,100689.13
2022-10-26T14:32:52.785Z,100683.88
2022-10-26T14:35:23.754Z,100685.03
2022-10-26T14:37:57.051Z,100681.22
2022-10-26T14:40:27.544Z,100684.84
2022-10-26T14:42:59.074Z,100697.28
2022-10-26T14:45:49.236Z,100693.28
2022-10-26T14:48:26.184Z,100702.03
2022-10-26T14:51:05.158Z,100697.78
2022-10-26T14:53:37.613Z,100703.94
2022-10-26T14:56:07.396Z,100713.38
2022-10-26T14:58:37.686Z,100713.59
2022-10-26T15:01:16.869Z,100701.06
2022-10-26T15:03:45.940Z,100713.06
2022-10-26T15:06:23.985Z,100725.19
2022-10-26T15:08:57.230Z,100721.13
2022-10-26T15:11:25.841Z,100723.75
2022-10-26T15:13:56.583Z,100725.38
2022-10-26T15:16:26.428Z,100729.41
2022-10-26T15:18:57.473Z,100734.69
2022-10-26T15:21:27.427Z,100727.16
2022-10-26T15:23:57.174Z,100741.75
2022-10-26T15:26:26.826Z,100739.53
2022-10-26T15:28:56.607Z,100748.56
2022-10-26T15:31:35.505Z,100752.22
2022-10-26T15:34:15.579Z,100756.91
2022-10-26T15:36:44.863Z,100759.41
2022-10-26T15:39:12.590Z,100763.88
2022-10-26T15:41:46.890Z,100766.16
2022-10-26T15:44:19.100Z,100769.47
2022-10-26T15:46:46.913Z,100777.75
2022-10-26T15:49:19.907Z,100768.09
2022-10-26T15:51:49.140Z,100769.31
2022-10-26T15:54:17.118Z,100773.66
2022-10-26T15:56:45.312Z,100781.38
2022-10-26T15:59:17.934Z,100780.44
2022-10-26T16:01:46.345Z,100782.69
2022-10-26T16:04:14.425Z,100781.47
2022-10-26T16:06:43.374Z,100785.81
2022-10-26T16:09:15.656Z,100787.00
2022-10-26T16:11:43.616Z,100792.19
2022-10-26T16:14:12.931Z,100793.53
2022-10-26T16:16:42.146Z,100791.28
2022-10-26T16:19:30.426Z,100784.34
2022-10-26T16:21:58.911Z,100799.25
2022-10-26T16:24:27.358Z,100800.94
2022-10-26T16:26:55.546Z,100800.91
2022-10-26T16:29:23.903Z,100804.56
2022-10-26T16:31:52.923Z,100815.25
2022-10-26T16:34:20.828Z,100821.34
2022-10-26T16:36:48.692Z,100825.59
2022-10-26T16:39:16.652Z,100819.75
2022-10-26T16:41:44.689Z,100831.13
2022-10-26T16:44:12.735Z,100824.88
2022-10-26T16:46:40.992Z,100830.03
2022-10-26T16:49:10.095Z,100833.59
2022-10-26T16:51:38.007Z,100839.88
2022-10-26T16:54:06.613Z,100832.16
2022-10-26T16:56:34.533Z,100838.84
2022-10-26T16:59:02.175Z,100839.34
2022-10-26T17:01:29.954Z,100854.63
2022-10-26T17:03:57.762Z,100849.44
2022-10-26T17:06:27.090Z,100852.44
2022-10-26T17:08:54.751Z,100857.69
2022-10-26T17:11:23.035Z,100864.84
2022-10-26T17:13:55.209Z,100872.13
2022-10-26T17:16:25.024Z,100867.50
2022-10-26T17:18:53.464Z,100877.56
2022-10-26T17:21:31.343Z,100883.16
2022-10-26T17:23:59.503Z,100889.31
2022-10-26T17:26:27.672Z,100893.03
2022-10-26T17:28:57.626Z,100893.88
2022-10-26T17:31:26.386Z,100902.84
2022-10-26T17:33:54.376Z,100898.63
2022-10-26T17:36:23.935Z,100904.97
2022-10-26T17:38:55.140Z,100910.41
2022-10-26T17:41:23.719Z,100914.97
2022-10-26T17:43:52.406Z,100916.81
2022-10-26T17:46:22.795Z,100916.63
2022-10-26T17:48:54.607Z,100914.00
2022-10-26T17:51:22.828Z,100919.44
2022-10-26T17:53:51.872Z,100923.97
2022-10-26T17:56:22.782Z,100919.72
2022-10-26T17:58:55.076Z,100921.56
2022-10-26T18:01:23.930Z,100922.34
2022-10-26T18:03:52.530Z,100924.88
2022-10-26T18:06:20.862Z,100925.13
2022-10-26T18:08:48.764Z,100920.91
2022-10-26T18:11:23.882Z,100924.38
2022-10-26T18:13:56.382Z,100928.06
2022-10-26T18:16:27.647Z,100936.53
2022-10-26T18:19:00.691Z,100939.34
2022-10-26T18:21:30.312Z,100950.84
2022-10-26T18:23:58.116Z,100958.72
2022-10-26T18:26:28.370Z,100958.72
2022-10-26T18:28:58.486Z,100967.22
2022-10-26T18:31:27.774Z,100975.66
2022-10-26T18:33:57.398Z,100980.06
2022-10-26T18:36:26.063Z,100981.66
2022-10-26T18:38:54.857Z,100983.25
2022-10-26T18:41:24.881Z,100985.41
2022-10-26T18:43:55.114Z,100982.31
2022-10-26T18:46:27.390Z,100984.63
2022-10-26T18:48:55.732Z,100990.38
2022-10-26T18:51:26.371Z,100993.97
2022-10-26T18:53:54.117Z,100987.19
2022-10-26T18:56:24.210Z,100990.16
2022-10-26T18:58:54.666Z,100994.47
2022-10-26T19:01:26.032Z,100995.63
2022-10-26T19:03:55.522Z,100993.00
2022-10-26T19:06:25.410Z,101002.72
2022-10-26T19:08:54.382Z,101004.56
2022-10-26T19:11:24.164Z,101003.94
2022-10-26T19:13:52.848Z,101009.59
2022-10-26T19:16:40.664Z,101003.03
2022-10-26T19:19:11.599Z,101015.59
2022-10-26T19:21:39.465Z,101012.19
2022-10-26T19:24:14.097Z,101010.59
2022-10-26T19:26:43.772Z,101002.88
2022-10-26T19:29:15.367Z,101007.22
2022-10-26T19:31:44.316Z,101019.00
2022-10-26T19:34:14.510Z,101025.31
2022-10-26T19:36:45.221Z,101020.47
2022-10-26T19:39:14.023Z,101015.59
2022-10-26T19:41:41.831Z,101022.16
2022-10-26T19:44:11.992Z,101016.94
2022-10-26T19:46:40.321Z,101010.09
2022-10-26T19:49:08.739Z,101011.69
2022-10-26T19:51:37.927Z,101009.66
2022-10-26T19:54:07.414Z,101013.88
2022-10-26T19:56:37.508Z,101021.91
2022-10-26T19:59:05.876Z,101026.75
2022-10-26T20:01:34.512Z,101028.75
2022-10-26T20:04:02.950Z,101026.53
2022-10-26T20:06:31.615Z,101034.44
2022-10-26T20:09:02.593Z,101024.78
2022-10-26T20:11:32.403Z,101030.97
2022-10-26T20:14:00.665Z,101029.88
2022-10-26T20:16:28.676Z,101029.22
2022-10-26T20:18:56.588Z,101027.44
2022-10-26T20:21:24.832Z,101027.38
2022-10-26T20:23:52.846Z,101030.44
2022-10-26T20:26:23.365Z,101038.97
2022-10-26T20:28:53.014Z,101042.53
2022-10-26T20:31:20.813Z,101048.13
2022-10-26T20:33:51.822Z,101057.13
2022-10-26T20:36:20.229Z,101058.06
2022-10-26T20:38:48.715Z,101057.25
2022-10-26T20:41:17.032Z,101061.84
2022-10-26T20:43:47.353Z,101064.66
2022-10-26T20:46:23.193Z,101061.78
2022-10-26T20:48:52.144Z,101049.97
2022-10-26T20:51:25.427Z,101053.72
2022-10-26T20:54:04.965Z,101044.81
2022-10-26T20:56:34.930Z,101038.47
2022-10-26T20:59:07.549Z,101042.72
2022-10-26T21:01:38.137Z,101040.63
2022-10-26T21:04:06.295Z,101050.94
2022-10-26T21:06:40.310Z,101055.91
2022-10-26T21:09:08.697Z,101065.06
2022-10-26T21:11:36.927Z,101076.72
2022-10-26T21:14:06.474Z,101071.53
2022-10-26T21:16:34.535Z,101074.78
2022-10-26T21:19:04.819Z,101072.19
2022-10-26T21:21:32.502Z,101073.94
2022-10-26T21:24:00.314Z,101065.06
2022-10-26T21:26:28.065Z,101063.13
2022-10-26T21:28:55.768Z,101067.16
2022-10-26T21:31:24.882Z,101060.75
2022-10-26T21:33:52.791Z,101061.66
2022-10-26T21:36:20.478Z,101065.44
2022-10-26T21:38:48.579Z,101066.16
2022-10-26T21:41:18.067Z,101070.50
2022-10-26T21:43:48.687Z,101075.84
2022-10-26T21:46:17.469Z,101077.41
2022-10-26T21:48:47.616Z,101079.22
2022-10-26T21:51:17.658Z,101083.69
2022-10-26T21:53:45.882Z,101083.88
2022-10-26T21:56:16.624Z,101086.63
2022-10-26T21:58:44.423Z,101091.53
2022-10-26T22:01:14.389Z,101084.00
2022-10-26T22:03:43.025Z,101089.09
2022-10-26T22:06:15.094Z,101088.25
2022-10-26T22:08:43.287Z,101086.53
2022-10-26T22:11:15.333Z,101092.13
2022-10-26T22:13:43.504Z,101091.38
2022-10-26T22:16:13.755Z,101094.94
2022-10-26T22:18:43.076Z,101093.09
2022-10-26T22:21:11.762Z,101093.97
2022-10-26T22:23:42.181Z,101096.06
2022-10-26T22:26:12.114Z,101090.97
2022-10-26T22:28:43.004Z,101094.44
2022-10-26T22:31:13.689Z,101093.28
2022-10-26T22:33:41.543Z,101101.19
2022-10-26T22:36:11.673Z,101100.38
2022-10-26T22:38:41.038Z,101106.69
2022-10-26T22:41:09.968Z,101112.84
2022-10-26T22:43:38.314Z,101113.50
2022-10-26T22:46:08.404Z,101106.94
2022-10-26T22:48:36.967Z,101104.94
2022-10-26T22:51:08.201Z,101100.34
2022-10-26T22:53:35.835Z,101104.94
2022-10-26T22:56:06.011Z,101101.59
2022-10-26T22:58:33.902Z,101103.63
2022-10-26T23:01:05.418Z,101102.00
2022-10-26T23:03:33.759Z,101099.84
2022-10-26T23:06:02.012Z,101094.38
2022-10-26T23:08:30.725Z,101087.28
2022-10-26T23:11:02.661Z,101090.97
2022-10-26T23:13:31.883Z,101093.47
2022-10-26T23:16:06.136Z,101093.22
2022-10-26T23:18:34.416Z,101087.09
2022-10-26T23:21:02.891Z,101096.69
2022-10-26T23:23:31.038Z,101094.97
2022-10-26T23:26:01.102Z,101093.41
2022-10-26T23:28:28.891Z,101089.81
2022-10-26T23:30:58.406Z,101084.25
2022-10-26T23:33:26.365Z,101091.19
2022-10-26T23:35:54.661Z,101088.69
2022-10-26T23:38:22.400Z,101093.22
2022-10-26T23:40:51.635Z,101109.88
2022-10-26T23:43:20.066Z,101119.00
2022-10-26T23:45:48.474Z,101112.53
2022-10-26T23:48:19.385Z,101107.44
2022-10-26T23:50:49.255Z,101106.91
2022-10-26T23:53:19.186Z,101128.88
2022-10-26T23:55:47.610Z,101144.47
2022-10-26T23:58:16.707Z,101146.59
